Armington, IL (61721)

5:20 AM CDT on August 24, 2016 (GMT -0500)
BFE Armington | | Change Station

Elev 627 ft 40.34 °N, 89.31 °W | Updated 28 seconds ago

Mostly Cloudy
Mostly Cloudy
71.6 °F
Feels Like 71.6 °F
N
2.7
Wind Variable Wind from SSE

Today
High -- | Low -- °F
--% Chance of Precip.
Yesterday
High -- | Low -- °F
Precip. -- in
Pressure 30.02 in
Visibility 10.0 miles
Clouds Mostly Cloudy 1000 ft
Dew Point 70 °F
Humidity 93%
Rainfall 0.00 in
Snow Depth Not available.
6:17 AM 7:40 PM
Waning Gibbous, 58% visible
METAR KAAA 240955Z AUTO 17007KT 10SM BKN010 23/22 A3002 RMK AO2 LTG DSNT W AND NW T02270222
Pressure 30.02 in
Visibility 10.0 miles
Clouds Mostly Cloudy 1000 ft
Dew Point 70 °F
Humidity 93%
Rainfall 0.00 in
Snow Depth Not available.
6:17 AM 7:40 PM
Waning Gibbous, 58% visible
METAR KAAA 240955Z AUTO 17007KT 10SM BKN010 23/22 A3002 RMK AO2 LTG DSNT W AND NW T02270222

10-Day Weather Forecast

Almanac

Astronomy

Aug. 24, 2016 Rise Set
Actual Time
Civil Twilight
Nautical Twilight
Astronomical Twilight
Moon
Length of Visible Light
Length of Day
Tomorrow will be .
, % of the Moon is Illuminated

Today's Extremes

State Highs State Lows

Community

WunderPhotos

Upload Photos

1,934,560 photos uploaded!

WunderBlog® & News

Nearby

Air Quality

  Air Quality AQ Index Pollutant
Not available.

Snow Depth

Station Depth Elevation

Earthquake Activity

City Distance Mag. Time & Date
Minimum magnitude displayed is 2.5.

Coastal Water Temperatures

Place Temperature

Stations

Nearby Weather Stations

Station Location Temp. Windchill Dew Point Humidity Wind Precip. Elev Updated Type
                   

Watches & Warnings

There are currently no watches in effect.